createdAt,value
2019-01-23T00:01:56.065Z,30.10
2019-01-23T00:04:26.815Z,32.80
2019-01-23T00:06:55.428Z,31.73
2019-01-23T00:09:24.316Z,30.72
2019-01-23T00:12:18.994Z,30.37
2019-01-23T00:18:39.598Z,31.30
2019-01-23T00:21:27.685Z,31.95
2019-01-23T00:24:17.451Z,30.82
2019-01-23T00:26:57.823Z,30.00
2019-01-23T00:29:30.031Z,31.12
2019-01-23T00:31:58.855Z,32.03
2019-01-23T00:34:27.536Z,32.30
2019-01-23T00:36:56.195Z,33.13
2019-01-23T00:39:25.147Z,32.03
2019-01-23T00:41:53.877Z,31.20
2019-01-23T00:44:22.544Z,32.55
2019-01-23T00:46:51.191Z,32.40
2019-01-23T00:49:19.979Z,32.90
2019-01-23T00:51:48.592Z,34.18
2019-01-23T00:54:17.325Z,30.95
2019-01-23T00:56:45.936Z,33.35
2019-01-23T00:59:14.700Z,33.60
2019-01-23T01:01:43.364Z,33.53
2019-01-23T01:04:12.025Z,33.45
2019-01-23T01:06:40.695Z,31.27
2019-01-23T01:09:10.456Z,33.75
2019-01-23T01:11:39.101Z,33.55
2019-01-23T01:14:07.724Z,32.28
2019-01-23T01:16:36.327Z,31.73
2019-01-23T01:19:05.043Z,33.38
2019-01-23T01:21:33.689Z,32.48
2019-01-23T01:24:02.341Z,28.60
2019-01-23T01:26:30.959Z,32.90
2019-01-23T01:28:59.655Z,34.18
2019-01-23T01:31:28.291Z,32.50
2019-01-23T01:33:56.915Z,31.73
2019-01-23T01:36:25.556Z,31.40
2019-01-23T01:38:54.371Z,32.78
2019-01-23T01:41:22.973Z,32.05
2019-01-23T01:43:51.722Z,33.48
2019-01-23T01:46:20.330Z,33.15
2019-01-23T01:48:48.995Z,33.98
2019-01-23T01:51:17.657Z,33.18
2019-01-23T01:53:46.281Z,31.10
2019-01-23T01:56:14.899Z,35.90
2019-01-23T01:58:43.855Z,32.03
2019-01-23T02:01:12.474Z,34.18
2019-01-23T02:03:41.120Z,35.52
2019-01-23T02:06:09.843Z,34.05
2019-01-23T02:08:38.463Z,33.85
2019-01-23T02:11:07.229Z,33.25
2019-01-23T02:13:35.833Z,32.20
2019-01-23T02:16:04.622Z,32.08
2019-01-23T02:18:33.250Z,33.20
2019-01-23T02:21:01.906Z,34.60
2019-01-23T02:23:30.775Z,34.85
2019-01-23T02:25:59.403Z,34.55
2019-01-23T02:28:28.015Z,33.90
2019-01-23T02:30:56.639Z,34.20
2019-01-23T02:33:25.231Z,34.92
2019-01-23T02:35:53.852Z,32.75
2019-01-23T02:38:22.467Z,35.60
2019-01-23T02:40:51.087Z,32.50
2019-01-23T02:43:19.712Z,31.57
2019-01-23T02:45:48.366Z,34.70
2019-01-23T02:48:16.959Z,33.78
2019-01-23T02:50:45.586Z,31.40
2019-01-23T02:53:14.205Z,33.40
2019-01-23T02:55:42.830Z,33.85
2019-01-23T02:58:11.545Z,34.18
2019-01-23T03:00:40.193Z,33.67
2019-01-23T03:03:08.799Z,33.92
2019-01-23T03:05:37.415Z,32.80
2019-01-23T03:08:06.120Z,33.25
2019-01-23T03:10:35.063Z,33.70
2019-01-23T03:13:03.761Z,32.45
2019-01-23T03:15:32.434Z,32.60
2019-01-23T03:18:01.045Z,33.25
2019-01-23T03:20:29.671Z,31.87
2019-01-23T03:22:58.383Z,33.28
2019-01-23T03:25:27.110Z,30.12
2019-01-23T03:27:55.754Z,30.35
2019-01-23T03:30:24.673Z,34.75
2019-01-23T03:32:53.285Z,30.85
2019-01-23T03:35:22.060Z,33.02
2019-01-23T03:37:50.660Z,35.25
2019-01-23T03:40:20.765Z,35.90
2019-01-23T03:42:49.459Z,33.20
2019-01-23T03:45:18.224Z,33.98
2019-01-23T03:47:47.295Z,32.90
2019-01-23T03:50:17.105Z,34.50
2019-01-23T03:52:45.891Z,33.30
2019-01-23T03:55:15.083Z,33.92
2019-01-23T03:57:43.785Z,32.55
2019-01-23T04:00:14.583Z,30.48
2019-01-23T04:02:43.359Z,34.78
2019-01-23T04:05:12.319Z,34.90
2019-01-23T04:07:41.012Z,31.23
2019-01-23T04:10:12.063Z,33.78
2019-01-23T04:12:40.773Z,33.05
2019-01-23T04:15:10.395Z,31.95
2019-01-23T04:17:39.288Z,34.65
2019-01-23T04:20:13.632Z,31.87
2019-01-23T04:22:42.331Z,32.03
2019-01-23T04:25:11.229Z,33.83
2019-01-23T04:27:39.900Z,31.65
2019-01-23T04:30:11.616Z,35.15
2019-01-23T04:32:40.236Z,32.53
2019-01-23T04:35:09.426Z,32.30
2019-01-23T04:37:38.127Z,32.60
2019-01-23T04:40:07.557Z,32.40
2019-01-23T04:42:36.197Z,33.08
2019-01-23T04:45:07.135Z,32.58
2019-01-23T04:47:35.839Z,33.23
2019-01-23T04:50:05.346Z,29.95
2019-01-23T04:52:59.012Z,32.60
2019-01-23T04:55:27.691Z,32.55
2019-01-23T04:57:56.351Z,32.93
2019-01-23T05:00:26.287Z,30.70
2019-01-23T05:02:54.908Z,31.40
2019-01-23T05:05:23.635Z,33.05
2019-01-23T05:07:52.562Z,32.25
2019-01-23T05:10:21.218Z,33.23
2019-01-23T05:12:49.923Z,32.45
2019-01-23T05:15:18.556Z,31.20
2019-01-23T05:17:47.196Z,33.23
2019-01-23T05:20:16.017Z,31.40
2019-01-23T05:22:44.630Z,30.92
2019-01-23T05:25:13.259Z,29.92
2019-01-23T05:27:41.904Z,31.90
2019-01-23T05:30:15.044Z,31.00
2019-01-23T05:32:43.658Z,31.23
2019-01-23T05:35:12.661Z,33.10
2019-01-23T05:37:41.306Z,32.48
2019-01-23T05:40:10.155Z,30.60
2019-01-23T05:42:38.763Z,30.52
2019-01-23T05:45:07.584Z,30.90
2019-01-23T05:47:36.200Z,31.42
2019-01-23T05:50:06.558Z,30.85
2019-01-23T05:52:35.166Z,29.90
2019-01-23T05:55:04.147Z,31.50
2019-01-23T05:57:32.773Z,31.77
2019-01-23T06:00:02.547Z,30.92
2019-01-23T06:02:31.536Z,32.83
2019-01-23T06:05:00.232Z,32.13
2019-01-23T06:07:28.934Z,32.45
2019-01-23T06:09:57.556Z,31.33
2019-01-23T06:12:26.244Z,32.08
2019-01-23T06:14:54.887Z,31.70
2019-01-23T06:17:23.540Z,27.30
2019-01-23T06:19:52.184Z,30.20
2019-01-23T06:22:20.824Z,29.27
2019-01-23T06:24:49.456Z,31.85
2019-01-23T06:27:18.086Z,25.43
2019-01-23T06:29:46.837Z,31.95
2019-01-23T06:32:15.576Z,30.08
2019-01-23T06:34:44.233Z,29.35
2019-01-23T06:37:12.876Z,30.80
2019-01-23T06:39:41.593Z,30.37
2019-01-23T06:42:10.286Z,29.37
2019-01-23T06:44:38.951Z,29.10
2019-01-23T06:47:07.611Z,29.45
2019-01-23T06:49:36.317Z,28.10
2019-01-23T06:52:05.031Z,31.80
2019-01-23T06:54:33.727Z,28.25
2019-01-23T06:57:02.456Z,28.95
2019-01-23T06:59:31.102Z,33.85
2019-01-23T07:01:59.795Z,29.20
2019-01-23T07:04:28.457Z,29.32
2019-01-23T07:06:57.071Z,27.35
2019-01-23T07:09:25.735Z,31.68
2019-01-23T07:11:54.447Z,29.50
2019-01-23T07:14:23.363Z,32.60
2019-01-23T07:16:52.006Z,26.80
2019-01-23T07:19:20.768Z,29.30
2019-01-23T07:21:49.426Z,29.72
2019-01-23T07:24:18.064Z,26.97
2019-01-23T07:26:46.774Z,26.80
2019-01-23T07:29:15.669Z,28.10
2019-01-23T07:31:44.325Z,28.70
2019-01-23T07:34:12.972Z,27.85
2019-01-23T07:36:41.595Z,30.85
2019-01-23T07:39:10.578Z,27.80
2019-01-23T07:41:39.450Z,29.95
2019-01-23T07:44:08.108Z,27.50
2019-01-23T07:46:36.763Z,30.50
2019-01-23T07:49:05.413Z,26.77
2019-01-23T07:51:35.162Z,28.55
2019-01-23T07:54:03.872Z,25.35
2019-01-23T07:56:32.527Z,28.75
2019-01-23T07:59:01.264Z,30.75
2019-01-23T08:01:29.949Z,31.10
2019-01-23T08:03:58.675Z,30.90
2019-01-23T08:06:27.328Z,28.12
2019-01-23T08:08:55.969Z,28.75
2019-01-23T08:11:24.643Z,30.60
2019-01-23T08:13:53.487Z,28.55
2019-01-23T08:16:22.131Z,28.12
2019-01-23T08:18:50.905Z,24.05
2019-01-23T08:21:19.705Z,24.18
2019-01-23T08:23:48.366Z,28.30
2019-01-23T08:26:17.004Z,27.93
2019-01-23T08:28:45.845Z,27.07
2019-01-23T08:31:14.587Z,28.23
2019-01-23T08:33:43.265Z,27.55
2019-01-23T08:36:11.916Z,27.65
2019-01-23T08:38:40.633Z,25.12
2019-01-23T08:41:09.271Z,27.77
2019-01-23T08:43:37.984Z,26.70
2019-01-23T08:46:06.631Z,28.02
2019-01-23T08:48:35.342Z,26.25
2019-01-23T08:51:04.256Z,27.22
2019-01-23T08:53:32.919Z,29.67
2019-01-23T08:56:01.626Z,30.08
2019-01-23T08:58:30.291Z,26.42
2019-01-23T09:00:59.196Z,27.30
2019-01-23T09:03:28.035Z,29.77
2019-01-23T09:05:56.683Z,27.22
2019-01-23T09:08:25.327Z,27.07
2019-01-23T09:10:54.063Z,25.90
2019-01-23T09:13:22.724Z,25.88
2019-01-23T09:15:51.373Z,27.87
2019-01-23T09:18:20.087Z,27.67
2019-01-23T09:20:49.034Z,23.15
2019-01-23T09:23:17.767Z,30.43
2019-01-23T09:25:50.062Z,26.37
2019-01-23T09:28:16.766Z,29.92
2019-01-23T09:30:54.651Z,25.23
2019-01-23T09:34:06.318Z,26.65
2019-01-23T09:37:10.538Z,30.17
2019-01-23T09:39:57.813Z,28.25
2019-01-23T09:42:43.247Z,30.30
2019-01-23T09:45:44.645Z,28.17
2019-01-23T09:48:30.164Z,27.17
2019-01-23T09:51:34.499Z,26.70
2019-01-23T09:54:10.809Z,25.80
2019-01-23T09:56:42.519Z,27.37
2019-01-23T09:59:11.199Z,23.15
2019-01-23T10:01:39.881Z,24.52
2019-01-23T10:04:08.508Z,26.95
2019-01-23T10:06:37.151Z,28.35
2019-01-23T10:09:08.391Z,26.45
2019-01-23T10:11:37.087Z,26.65
2019-01-23T10:14:06.070Z,28.47
2019-01-23T10:16:34.695Z,28.62
2019-01-23T10:19:03.447Z,30.48
2019-01-23T10:21:32.149Z,27.48
2019-01-23T10:24:00.770Z,28.42
2019-01-23T10:26:29.420Z,30.50
2019-01-23T10:28:59.027Z,29.02
2019-01-23T10:31:27.679Z,28.70
2019-01-23T10:33:56.303Z,24.43
2019-01-23T10:36:24.976Z,27.15
2019-01-23T10:38:53.596Z,29.80
2019-01-23T10:41:22.341Z,27.70
2019-01-23T10:43:51.047Z,32.38
2019-01-23T10:46:19.779Z,32.88
2019-01-23T10:48:48.427Z,31.42
2019-01-23T10:51:17.067Z,32.60
2019-01-23T10:53:45.700Z,35.92
2019-01-23T10:56:14.367Z,39.48
2019-01-23T10:58:42.983Z,31.05
2019-01-23T11:01:13.508Z,34.48
2019-01-23T11:03:42.697Z,35.33
2019-01-23T11:06:11.435Z,38.70
2019-01-23T11:08:40.056Z,33.30
2019-01-23T11:11:08.715Z,33.60
2019-01-23T11:13:37.423Z,35.80
2019-01-23T11:16:06.135Z,35.48
2019-01-23T11:18:35.082Z,34.13
2019-01-23T11:21:04.100Z,33.65
2019-01-23T11:23:32.738Z,34.38
2019-01-23T11:26:01.470Z,35.05
2019-01-23T11:28:30.087Z,33.48
2019-01-23T11:30:58.724Z,37.78
2019-01-23T11:33:27.338Z,31.48
2019-01-23T11:35:55.985Z,30.77
2019-01-23T11:38:24.779Z,36.25
2019-01-23T11:40:53.411Z,36.93
2019-01-23T11:43:22.068Z,38.35
2019-01-23T11:45:51.367Z,33.05
2019-01-23T11:48:19.995Z,36.60
2019-01-23T11:50:48.744Z,38.65
2019-01-23T11:53:17.410Z,32.05
2019-01-23T11:55:46.052Z,31.68
2019-01-23T11:58:14.668Z,36.75
2019-01-23T12:00:43.372Z,31.42
2019-01-23T12:03:11.983Z,36.05
2019-01-23T12:05:40.651Z,26.15
2019-01-23T12:08:09.273Z,32.03
2019-01-23T12:10:37.927Z,33.35
2019-01-23T12:13:06.556Z,29.52
2019-01-23T12:15:40.781Z,35.85
2019-01-23T12:18:05.663Z,31.55
2019-01-23T12:20:34.256Z,33.50
2019-01-23T12:23:02.996Z,30.92
2019-01-23T12:25:31.755Z,33.83
2019-01-23T12:28:00.419Z,35.13
2019-01-23T12:30:31.623Z,35.75
2019-01-23T12:33:00.327Z,33.20
2019-01-23T12:35:29.044Z,33.25
2019-01-23T12:37:57.742Z,34.30
2019-01-23T12:40:26.527Z,37.70
2019-01-23T12:42:55.377Z,34.98
2019-01-23T12:45:25.922Z,33.15
2019-01-23T12:47:54.667Z,29.87
2019-01-23T12:50:25.951Z,31.02
2019-01-23T12:52:54.828Z,30.60
2019-01-23T12:55:23.660Z,30.15
2019-01-23T12:57:52.330Z,31.12
2019-01-23T13:00:23.476Z,27.27
2019-01-23T13:02:52.352Z,28.80
2019-01-23T13:05:21.915Z,30.60
2019-01-23T13:07:50.823Z,32.10
2019-01-23T13:10:20.169Z,33.48
2019-01-23T13:12:49.395Z,32.13
2019-01-23T13:15:20.098Z,32.58
2019-01-23T13:17:48.878Z,32.60
2019-01-23T13:20:18.190Z,31.80
2019-01-23T13:22:46.962Z,35.80
2019-01-23T13:25:17.446Z,33.02
2019-01-23T13:27:48.547Z,31.52
2019-01-23T13:30:19.302Z,34.27
2019-01-23T13:32:48.211Z,34.38
2019-01-23T13:35:18.673Z,33.58
2019-01-23T13:37:47.616Z,36.90
2019-01-23T13:40:19.311Z,34.60
2019-01-23T13:42:48.279Z,36.85
2019-01-23T13:45:17.065Z,36.68
2019-01-23T13:47:45.819Z,37.25
2019-01-23T13:50:15.001Z,35.45
2019-01-23T13:52:43.660Z,35.28
2019-01-23T13:55:13.500Z,34.08
2019-01-23T13:57:42.325Z,35.43
2019-01-23T14:00:20.167Z,34.80
2019-01-23T14:02:48.909Z,35.08
2019-01-23T14:05:17.800Z,38.15
2019-01-23T14:07:46.471Z,34.35
2019-01-23T14:10:15.699Z,35.35
2019-01-23T14:12:44.417Z,34.48
2019-01-23T14:15:16.948Z,33.58
2019-01-23T14:17:45.788Z,34.23
2019-01-23T14:20:14.956Z,34.27
2019-01-23T14:22:44.044Z,35.98
2019-01-23T14:25:13.855Z,37.73
2019-01-23T14:27:42.579Z,37.25
2019-01-23T14:30:26.110Z,38.08
2019-01-23T14:32:54.783Z,37.75
2019-01-23T14:35:23.431Z,41.23
2019-01-23T14:37:52.091Z,42.53
2019-01-23T14:40:20.727Z,41.75
2019-01-23T14:42:49.438Z,43.33
2019-01-23T14:45:18.945Z,47.03
2019-01-23T14:47:47.886Z,47.48
2019-01-23T14:50:16.761Z,45.48
2019-01-23T14:52:45.498Z,47.90
2019-01-23T14:55:14.269Z,44.00
2019-01-23T14:57:43.225Z,46.02
2019-01-23T15:00:15.221Z,48.95
2019-01-23T15:02:43.991Z,46.30
2019-01-23T15:05:12.771Z,46.95
2019-01-23T15:07:41.435Z,48.60
2019-01-23T15:10:18.216Z,49.88
2019-01-23T15:12:46.956Z,47.62
2019-01-23T15:15:16.021Z,48.58
2019-01-23T15:17:44.915Z,52.75
2019-01-23T15:20:17.007Z,48.83
2019-01-23T15:22:45.659Z,52.35
2019-01-23T15:25:14.635Z,50.43
2019-01-23T15:27:43.364Z,50.20
2019-01-23T15:30:13.433Z,47.98
2019-01-23T15:32:42.155Z,45.78
2019-01-23T15:35:11.099Z,46.28
2019-01-23T15:37:39.813Z,51.37
2019-01-23T15:40:10.895Z,53.25
2019-01-23T15:42:39.578Z,55.70
2019-01-23T15:45:08.827Z,54.03
2019-01-23T15:47:37.544Z,53.10
2019-01-23T15:50:07.979Z,47.58
2019-01-23T15:52:36.636Z,49.83
2019-01-23T15:55:07.046Z,48.10
2019-01-23T15:57:35.958Z,50.25
2019-01-23T16:00:07.306Z,53.35
2019-01-23T16:02:35.967Z,55.90
2019-01-23T16:05:05.624Z,53.87
2019-01-23T16:07:34.314Z,53.50
2019-01-23T16:10:03.034Z,44.95
2019-01-23T16:12:31.680Z,54.77
2019-01-23T16:15:00.347Z,50.92
2019-01-23T16:17:29.028Z,51.92
2019-01-23T16:19:57.823Z,52.03
2019-01-23T16:22:26.473Z,52.95
2019-01-23T16:24:55.194Z,53.13
2019-01-23T16:27:23.824Z,52.17
2019-01-23T16:29:52.499Z,48.92
2019-01-23T16:32:21.140Z,51.18
2019-01-23T16:34:49.806Z,57.25
2019-01-23T16:37:18.735Z,52.27
2019-01-23T16:39:47.398Z,53.20
2019-01-23T16:42:16.079Z,51.85
2019-01-23T16:44:44.762Z,50.03
2019-01-23T16:47:13.396Z,54.08
2019-01-23T16:49:42.324Z,54.23
2019-01-23T16:52:11.111Z,51.55
2019-01-23T16:54:39.919Z,54.08
2019-01-23T16:57:08.602Z,52.58
2019-01-23T16:59:37.277Z,50.73
2019-01-23T17:02:06.177Z,50.08
2019-01-23T17:04:34.840Z,47.62
2019-01-23T17:07:03.676Z,50.00
2019-01-23T17:09:32.335Z,52.08
2019-01-23T17:12:00.969Z,50.65
2019-01-23T17:14:29.632Z,46.30
2019-01-23T17:16:58.267Z,43.55
2019-01-23T17:19:27.005Z,41.75
2019-01-23T17:21:55.736Z,45.88
2019-01-23T17:24:24.457Z,42.23
2019-01-23T17:26:53.152Z,48.42
2019-01-23T17:29:21.837Z,48.08
2019-01-23T17:31:50.563Z,50.10
2019-01-23T17:34:19.261Z,45.58
2019-01-23T17:36:47.977Z,45.28
2019-01-23T17:39:16.731Z,47.45
2019-01-23T17:41:45.367Z,48.65
2019-01-23T17:44:14.141Z,46.37
2019-01-23T17:46:43.311Z,46.45
2019-01-23T17:49:12.268Z,47.48
2019-01-23T17:51:41.173Z,42.78
2019-01-23T17:54:09.970Z,44.00
2019-01-23T17:56:38.604Z,46.02
2019-01-23T17:59:07.377Z,48.58
2019-01-23T18:01:36.000Z,43.85
2019-01-23T18:04:05.054Z,45.60
2019-01-23T18:06:33.733Z,44.50
2019-01-23T18:09:02.455Z,47.10
2019-01-23T18:11:31.167Z,41.08
2019-01-23T18:13:59.939Z,45.73
2019-01-23T18:16:28.554Z,45.33
2019-01-23T18:18:57.217Z,44.45
2019-01-23T18:21:25.923Z,42.30
2019-01-23T18:23:54.644Z,40.98
2019-01-23T18:26:23.415Z,44.25
2019-01-23T18:28:52.031Z,43.50
2019-01-23T18:31:35.147Z,42.95
2019-01-23T18:34:48.347Z,41.85
2019-01-23T18:37:27.009Z,41.05
2019-01-23T18:40:27.079Z,42.25
2019-01-23T18:43:16.074Z,43.38
2019-01-23T18:46:04.482Z,38.85
2019-01-23T18:49:01.904Z,42.90
2019-01-23T18:51:36.484Z,39.58
2019-01-23T18:54:05.251Z,42.75
2019-01-23T18:56:34.029Z,41.83
2019-01-23T18:59:02.723Z,43.42
2019-01-23T19:01:31.489Z,42.40
2019-01-23T19:04:00.092Z,43.95
2019-01-23T19:06:28.841Z,42.33
2019-01-23T19:08:57.451Z,33.95
2019-01-23T19:11:26.117Z,42.98
2019-01-23T19:13:54.883Z,35.03
2019-01-23T19:16:23.628Z,40.78
2019-01-23T19:18:52.270Z,44.45
2019-01-23T19:21:21.046Z,38.28
2019-01-23T19:23:49.659Z,43.48
2019-01-23T19:26:18.318Z,44.53
2019-01-23T19:28:46.956Z,43.98
2019-01-23T19:31:15.640Z,47.03
2019-01-23T19:33:44.342Z,43.60
2019-01-23T19:36:13.028Z,51.55
2019-01-23T19:38:41.750Z,43.78
2019-01-23T19:41:10.417Z,46.60
2019-01-23T19:43:39.133Z,45.85
2019-01-23T19:46:07.795Z,37.98
2019-01-23T19:48:36.558Z,40.03
2019-01-23T19:51:05.289Z,47.20
2019-01-23T19:53:33.975Z,43.15
2019-01-23T19:56:02.648Z,43.87
2019-01-23T19:58:31.278Z,47.25
2019-01-23T20:00:59.930Z,50.55
2019-01-23T20:03:28.563Z,45.08
2019-01-23T20:05:57.243Z,48.98
2019-01-23T20:08:25.872Z,44.25
2019-01-23T20:10:54.539Z,50.00
2019-01-23T20:13:23.258Z,45.45
2019-01-23T20:15:51.948Z,50.52
2019-01-23T20:18:20.596Z,51.65
2019-01-23T20:20:49.306Z,49.73
2019-01-23T20:23:17.918Z,52.73
2019-01-23T20:25:46.599Z,42.17
2019-01-23T20:28:15.244Z,51.02
2019-01-23T20:30:44.770Z,52.55
2019-01-23T20:33:13.467Z,46.53
2019-01-23T20:35:42.495Z,54.33
2019-01-23T20:38:11.163Z,51.00
2019-01-23T20:40:39.827Z,51.02
2019-01-23T20:43:08.723Z,49.38
2019-01-23T20:45:37.407Z,45.33
2019-01-23T20:48:07.823Z,51.90
2019-01-23T20:50:36.523Z,51.37
2019-01-23T20:53:05.615Z,52.23
2019-01-23T20:55:34.497Z,54.77
2019-01-23T20:58:03.312Z,50.33
2019-01-23T21:00:32.978Z,55.43
2019-01-23T21:03:01.712Z,50.73
2019-01-23T21:05:30.531Z,52.58
2019-01-23T21:07:59.238Z,56.10
2019-01-23T21:10:27.947Z,56.88
2019-01-23T21:12:56.630Z,56.15
2019-01-23T21:15:27.668Z,54.70
2019-01-23T21:17:56.323Z,55.58
2019-01-23T21:20:25.278Z,50.10
2019-01-23T21:22:53.917Z,50.00
2019-01-23T21:25:22.632Z,56.30
2019-01-23T21:27:51.298Z,56.25
2019-01-23T21:30:24.485Z,53.28
2019-01-23T21:32:53.259Z,55.23
2019-01-23T21:35:21.896Z,51.42
2019-01-23T21:37:50.555Z,54.75
2019-01-23T21:40:21.391Z,58.40
2019-01-23T21:42:50.139Z,57.08
2019-01-23T21:45:18.911Z,53.02
2019-01-23T21:47:48.448Z,50.38
2019-01-23T21:50:18.367Z,56.95
2019-01-23T21:52:47.180Z,54.90
2019-01-23T21:55:17.781Z,58.25
2019-01-23T21:57:46.703Z,54.45
2019-01-23T22:00:21.423Z,56.05
2019-01-23T22:02:50.087Z,54.38
2019-01-23T22:05:18.801Z,55.33
2019-01-23T22:07:47.482Z,55.70
2019-01-23T22:10:16.173Z,56.28
2019-01-23T22:12:44.798Z,55.85
2019-01-23T22:15:15.316Z,55.20
2019-01-23T22:17:44.065Z,58.68
2019-01-23T22:20:15.227Z,52.25
2019-01-23T22:22:43.998Z,50.08
2019-01-23T22:25:14.090Z,59.45
2019-01-23T22:27:42.781Z,58.28
2019-01-23T22:30:14.534Z,54.13
2019-01-23T22:32:43.288Z,56.70
2019-01-23T22:35:12.271Z,55.73
2019-01-23T22:37:40.950Z,62.30
2019-01-23T22:40:10.568Z,62.70
2019-01-23T22:42:39.189Z,42.90
2019-01-23T22:45:09.990Z,51.23
2019-01-23T22:47:38.720Z,60.48
2019-01-23T22:50:09.824Z,53.33
2019-01-23T22:52:38.535Z,58.08
2019-01-23T22:55:08.451Z,51.40
2019-01-23T22:57:37.192Z,43.45
2019-01-23T23:00:15.828Z,60.95
2019-01-23T23:02:44.651Z,56.48
2019-01-23T23:05:13.404Z,60.15
2019-01-23T23:07:42.028Z,62.05
2019-01-23T23:10:11.694Z,61.58
2019-01-23T23:12:40.415Z,61.75
2019-01-23T23:15:09.228Z,62.23
2019-01-23T23:17:38.075Z,58.23
2019-01-23T23:20:07.555Z,68.45
2019-01-23T23:22:36.300Z,62.03
2019-01-23T23:25:05.840Z,64.62
2019-01-23T23:27:39.404Z,48.02
2019-01-23T23:30:07.633Z,56.50
2019-01-23T23:32:36.293Z,60.67
2019-01-23T23:35:06.063Z,51.68
2019-01-23T23:37:34.724Z,56.10
2019-01-23T23:40:04.641Z,49.77
2019-01-23T23:42:33.274Z,51.83
2019-01-23T23:47:30.607Z,50.88
2019-01-23T23:49:59.255Z,56.13
2019-01-23T23:52:27.987Z,50.70
2019-01-23T23:54:56.621Z,46.75
2019-01-23T23:57:25.275Z,47.73
2019-01-23T23:59:53.899Z,29.63
